Time;durP1;ratioP1;P1;durP2;ratioP2;P2;SDS_P1;SDS_P2;PMS_P1;PMS_P2;Temp;Humidity;BMP_temperature;BMP_pressure;BME280_temperature;BME280_humidity;BME280_pressure;Samples;Min_cycle;Max_cycle;Signal;HPM_P1;HPM_P2
2022/01/28 00:00:15;;;;;;;;;53.75;37.00;;;;;9.06;78.52;103024.00;5097858;27;45472;-44
2022/01/28 00:05:18;;;;;;;;;41.75;31.50;;;;;9.06;79.37;103031.97;5098059;27;45362;-44
2022/01/28 00:07:44;;;;;;;;;40.00;31.75;;;;;8.94;79.13;103006.91;5098090;27;45267;-45
2022/01/28 00:10:10;;;;;;;;;44.25;35.75;;;;;9.07;78.77;103027.50;5079201;27;46020;-45
2022/01/28 00:12:42;;;;;;;;;49.00;37.25;;;;;9.07;78.84;103030.16;5097784;27;45196;-45
2022/01/28 00:15:18;;;;;;;;;49.50;39.50;;;;;9.08;78.88;103035.38;5098076;27;45358;-46
2022/01/28 00:39:16;;;;;;;;;44.00;35.25;;;;;9.02;79.31;103033.06;5097855;27;45284;-46
2022/01/28 00:41:41;;;;;;;;;46.75;38.50;;;;;9.10;78.73;103056.53;5096951;27;46152;-45
2022/01/28 00:44:07;;;;;;;;;51.00;34.25;;;;;9.09;79.14;103066.28;5097423;27;45213;-45
2022/01/28 00:46:32;;;;;;;;;38.75;32.25;;;;;9.10;78.73;103056.53;5097792;27;45404;-46
2022/01/28 00:48:58;;;;;;;;;34.00;29.00;;;;;9.10;79.65;103057.41;5097796;27;45241;-46
2022/01/28 00:51:23;;;;;;;;;41.50;32.50;;;;;9.11;79.66;103059.13;5078775;27;45575;-47
2022/01/28 00:53:49;;;;;;;;;39.50;32.00;;;;;9.10;79.03;103057.41;5097310;27;45271;-45
2022/01/28 00:56:14;;;;;;;;;43.50;35.75;;;;;9.13;79.72;103067.84;5097195;27;45460;-46
2022/01/28 00:58:40;;;;;;;;;42.75;32.25;;;;;9.12;79.70;103068.78;5097591;27;45390;-46
2022/01/28 01:01:05;;;;;;;;;46.25;36.75;;;;;9.12;79.61;103066.13;5099048;27;46202;-45
2022/01/28 01:03:31;;;;;;;;;45.00;34.25;;;;;9.10;79.09;103073.34;5082264;27;45359;-46
2022/01/28 01:05:56;;;;;;;;;42.50;36.75;;;;;9.09;79.56;103074.25;5100979;27;45408;-45
2022/01/28 01:08:22;;;;;;;;;47.75;37.25;;;;;9.10;79.69;103077.75;5100877;27;45285;-44
2022/01/28 01:10:49;;;;;;;;;38.75;27.25;;;;;9.09;79.02;103078.72;5100586;27;45458;-45
2022/01/28 01:13:15;;;;;;;;;43.75;37.50;;;;;9.07;79.42;103072.63;5100104;27;45352;-43
2022/01/28 01:15:44;;;;;;;;;37.00;30.75;;;;;9.05;78.80;103072.69;5100398;27;45378;-44
2022/01/28 01:18:17;;;;;;;;;44.75;35.50;;;;;9.00;79.57;103074.75;5100842;27;45425;-47
2022/01/28 01:23:21;;;;;;;;;45.25;36.00;;;;;8.99;79.44;103087.16;5100420;27;45324;-46
2022/01/28 01:26:04;;;;;;;;;42.50;33.75;;;;;9.00;79.25;103095.97;5100358;27;45402;-47
2022/01/28 01:28:34;;;;;;;;;50.00;41.75;;;;;8.98;79.67;103080.13;5100730;27;45391;-45
2022/01/28 01:31:02;;;;;;;;;55.50;37.75;;;;;9.01;79.56;103084.41;5100359;27;47169;-44
2022/01/28 01:33:31;;;;;;;;;49.00;36.50;;;;;9.00;79.93;103090.66;5100249;27;45570;-45
2022/01/28 01:36:00;;;;;;;;;48.00;37.00;;;;;9.00;79.18;103098.63;5100449;27;45314;-48
2022/01/28 01:38:27;;;;;;;;;46.00;33.25;;;;;8.99;79.34;103103.09;5100370;27;45532;-48
2022/01/28 01:40:57;;;;;;;;;45.25;35.50;;;;;8.96;79.75;103089.97;5099691;27;46035;-45
2022/01/28 01:46:15;;;;;;;;;40.50;37.50;;;;;9.01;79.35;103105.66;5100248;27;45225;-47
2022/01/28 01:54:08;;;;;;;;;57.75;41.00;;;;;8.99;79.22;103119.03;5099865;27;45357;-45
2022/01/28 01:56:35;;;;;;;;;54.00;41.25;;;;;8.95;79.43;103119.25;5099883;27;45413;-47
2022/01/28 01:59:01;;;;;;;;;49.00;38.75;;;;;8.94;79.37;103120.19;5100155;27;45517;-47
2022/01/28 02:01:26;;;;;;;;;49.25;40.00;;;;;8.93;79.10;103129.06;5099403;27;46260;-46
2022/01/28 02:03:52;;;;;;;;;57.00;41.25;;;;;8.94;79.55;103128.16;5099967;27;45316;-44
2022/01/28 02:06:19;;;;;;;;;49.25;40.75;;;;;8.93;78.94;103140.59;5099916;27;45382;-45
2022/01/28 02:08:45;;;;;;;;;43.50;37.00;;;;;8.93;79.85;103140.59;5100042;27;45311;-44
2022/01/28 02:11:11;;;;;;;;;49.75;42.00;;;;;8.93;79.92;103135.28;5099031;27;45449;-45
2022/01/28 02:13:38;;;;;;;;;49.50;35.75;;;;;8.95;79.29;103141.34;5098688;27;45347;-44
2022/01/28 02:16:05;;;;;;;;;54.25;39.00;;;;;8.92;79.19;103141.50;5099892;27;45342;-44
2022/01/28 02:18:30;;;;;;;;;51.75;40.25;;;;;8.87;78.62;103132.91;5099653;27;45333;-46
2022/01/28 02:21:03;;;;;;;;;47.50;34.75;;;;;8.81;79.07;103140.34;5099181;27;47122;-46
2022/01/28 02:23:29;;;;;;;;;45.00;32.50;;;;;8.80;79.41;103142.09;5099536;27;45408;-45
2022/01/28 02:25:57;;;;;;;;;42.50;33.25;;;;;8.78;79.26;103137.84;5099513;27;45252;-44
2022/01/28 02:28:24;;;;;;;;;47.75;33.50;;;;;8.75;79.69;103144.13;5099592;27;45443;-44
2022/01/28 02:30:50;;;;;;;;;46.75;34.50;;;;;8.75;78.66;103144.13;5098706;27;46190;-46
2022/01/28 02:33:19;;;;;;;;;34.75;32.50;;;;;8.75;78.92;103134.38;5099322;27;45250;-43
2022/01/28 02:35:46;;;;;;;;;43.00;33.00;;;;;8.75;79.63;103142.34;5099490;27;45380;-47
2022/01/28 02:38:14;;;;;;;;;40.50;34.00;;;;;8.74;79.37;103143.28;5099399;27;45553;-47
2022/01/28 02:40:44;;;;;;;;;50.75;36.50;;;;;8.77;79.03;103152.03;5080707;27;45562;-45
2022/01/28 02:45:49;;;;;;;;;43.50;34.25;;;;;8.77;79.53;103144.06;5099040;27;45369;-45
2022/01/28 02:48:18;;;;;;;;;42.25;32.25;;;;;8.79;79.71;103158.13;5099152;27;45248;-47
2022/01/28 02:53:28;;;;;;;;;49.75;34.00;;;;;8.74;78.75;103156.56;5099067;27;45223;-47
2022/01/28 02:55:59;;;;;;;;;52.00;35.50;;;;;8.68;78.68;103150.66;5099051;27;45346;-48
2022/01/28 02:58:26;;;;;;;;;42.75;32.50;;;;;8.67;79.23;103157.78;5098837;27;45446;-47
2022/01/28 03:00:54;;;;;;;;;46.50;34.75;;;;;8.68;79.55;103156.88;5098882;27;46013;-46
2022/01/28 03:03:22;;;;;;;;;42.50;32.00;;;;;8.69;79.51;103169.19;5098833;27;45415;-45
2022/01/28 03:05:48;;;;;;;;;42.00;32.25;;;;;8.65;79.12;103154.34;5098843;27;45366;-46
2022/01/28 03:08:14;;;;;;;;;33.75;23.25;;;;;8.59;79.37;103141.38;5080487;27;45490;-46
2022/01/28 03:10:42;;;;;;;;;40.75;32.75;;;;;8.67;78.42;103148.97;5098703;27;45267;-46
2022/01/28 03:15:41;;;;;;;;;40.00;29.25;;;;;8.67;79.03;103146.31;5098597;27;45337;-44
2022/01/28 03:18:14;;;;;;;;;39.50;27.75;;;;;8.66;79.07;103134.84;5098877;27;45366;-45
2022/01/28 03:20:44;;;;;;;;;36.75;30.25;;;;;8.64;78.64;103127.91;5098309;27;46317;-46
2022/01/28 03:23:10;;;;;;;;;44.00;31.50;;;;;8.63;78.11;103137.63;5098214;27;45347;-47
2022/01/28 03:25:39;;;;;;;;;38.00;26.25;;;;;8.63;78.03;103136.78;5098615;27;45411;-46
2022/01/28 03:28:04;;;;;;;;;50.00;37.50;;;;;8.63;78.04;103139.44;5099412;27;45216;-45
2022/01/28 03:30:30;;;;;;;;;63.50;48.50;;;;;8.57;78.85;103148.56;5099330;27;46206;-45
2022/01/28 03:32:55;;;;;;;;;65.25;47.00;;;;;8.50;78.18;103141.81;5099287;27;45199;-45
2022/01/28 03:35:20;;;;;;;;;65.00;50.50;;;;;8.47;79.03;103145.50;5099021;27;45490;-48
2022/01/28 03:37:46;;;;;;;;;65.00;49.25;;;;;8.51;78.79;103151.50;5099282;27;45368;-46
2022/01/28 03:40:13;;;;;;;;;59.25;47.50;;;;;8.46;78.58;103145.56;5098301;27;45343;-47
2022/01/28 03:42:38;;;;;;;;;75.75;52.25;;;;;8.42;78.44;103141.34;5098181;27;45524;-45
2022/01/28 03:45:05;;;;;;;;;68.50;51.75;;;;;8.39;78.33;103133.56;5079744;27;45336;-47
2022/01/28 03:47:32;;;;;;;;;71.25;53.00;;;;;8.37;78.89;103153.97;5098477;27;45497;-47
2022/01/28 03:49:57;;;;;;;;;73.75;52.75;;;;;8.36;79.02;103152.22;5098002;27;46078;-46
2022/01/28 03:52:23;;;;;;;;;74.25;55.25;;;;;8.34;78.52;103143.47;5097991;27;45367;-51
2022/01/28 03:54:48;;;;;;;;;72.00;51.75;;;;;8.33;78.59;103161.16;5098261;27;45555;-53
2022/01/28 03:57:14;;;;;;;;;66.25;49.00;;;;;8.29;78.69;103162.25;5098058;27;45441;-49
2022/01/28 03:59:39;;;;;;;;;62.50;50.00;;;;;8.25;78.63;103169.47;5097951;27;46983;-43
2022/01/28 04:02:06;;;;;;;;;61.25;50.25;;;;;8.19;78.69;103168.94;5097929;27;45177;-49
2022/01/28 04:12:30;;;;;;;;;67.75;50.25;;;;;8.13;78.63;103188.66;5111016;27;45366;-44
2022/01/28 04:15:51;;;;;;;;;68.50;52.75;;;;;8.13;78.76;103191.28;5097568;27;45366;-43
2022/01/28 04:17:44;;;;;;;;;66.75;50.75;;;;;8.12;78.72;103192.19;5084237;27;45333;-47
2022/01/28 04:20:10;;;;;;;;;69.50;51.75;;;;;8.16;79.34;103185.81;5097991;27;45456;-47
2022/01/28 04:22:35;;;;;;;;;68.75;51.50;;;;;8.15;79.68;103183.25;5097614;27;45225;-47
2022/01/28 04:25:01;;;;;;;;;69.25;50.25;;;;;8.13;78.63;103177.16;5097759;27;45276;-44
2022/01/28 04:27:26;;;;;;;;;61.50;44.00;;;;;8.14;78.74;103179.75;5097840;27;45359;-48
2022/01/28 04:29:52;;;;;;;;;68.50;52.00;;;;;8.04;78.76;103162.53;5097254;27;46285;-47
2022/01/28 04:32:19;;;;;;;;;70.75;49.75;;;;;8.04;79.43;103169.63;5097581;27;45254;-44
2022/01/28 04:34:44;;;;;;;;;73.25;51.50;;;;;8.08;79.21;103181.81;5097530;27;45421;-48
2022/01/28 04:39:53;;;;;;;;;69.25;52.00;;;;;8.06;79.36;103184.53;5101079;27;46194;-47
2022/01/28 04:50:08;;;;;;;;;66.50;53.00;;;;;7.99;79.44;103178.66;5100808;27;45313;-43
2022/01/28 04:52:58;;;;;;;;;71.00;51.50;;;;;8.01;79.32;103189.19;5100844;27;45302;-46
2022/01/28 04:55:40;;;;;;;;;70.25;52.25;;;;;7.90;79.26;103180.88;5100809;27;45452;-46
2022/01/28 05:24:23;;;;;;;;;67.25;53.00;;;;;7.60;79.71;103218.41;5113729;27;45369;-43
2022/01/28 05:26:58;;;;;;;;;66.25;51.00;;;;;7.65;79.77;103224.34;5100206;27;45231;-44
2022/01/28 05:29:24;;;;;;;;;71.25;51.50;;;;;7.68;79.57;103218.06;5100601;27;45548;-44
2022/01/28 05:31:49;;;;;;;;;69.25;47.75;;;;;7.53;79.37;103205.47;5100360;27;46032;-47
2022/01/28 05:34:15;;;;;;;;;66.75;51.50;;;;;7.63;78.70;103236.81;5100280;27;45286;-47
2022/01/28 05:36:41;;;;;;;;;68.50;52.25;;;;;7.56;79.52;103250.38;5100365;27;45295;-45
2022/01/28 05:39:06;;;;;;;;;74.00;50.50;;;;;7.53;78.40;103245.22;5082179;27;45272;-45
2022/01/28 05:41:32;;;;;;;;;68.75;51.75;;;;;7.52;79.01;103244.34;5099964;27;47106;-45
2022/01/28 05:43:57;;;;;;;;;62.25;48.25;;;;;7.45;78.56;103235.78;5100199;27;45228;-45
2022/01/28 05:46:27;;;;;;;;;70.00;53.25;;;;;7.42;78.45;103256.28;5099967;27;45172;-46
2022/01/28 05:48:52;;;;;;;;;71.50;53.75;;;;;7.37;78.69;103253.78;5100280;27;45396;-46
2022/01/28 05:51:18;;;;;;;;;64.00;48.00;;;;;7.34;78.67;103256.59;5099866;27;46051;-44
2022/01/28 05:53:44;;;;;;;;;62.50;47.25;;;;;7.32;78.86;103258.44;5099976;27;45571;-45
2022/01/28 05:56:09;;;;;;;;;77.75;55.50;;;;;7.27;78.96;103260.41;5099988;27;45271;-43
2022/01/28 05:58:34;;;;;;;;;63.50;46.00;;;;;7.22;79.73;103270.34;5099988;27;45359;-45
2022/01/28 06:01:00;;;;;;;;;69.00;50.25;;;;;7.19;79.23;103279.25;5099672;27;47189;-44
2022/01/28 06:03:25;;;;;;;;;60.00;47.00;;;;;7.18;79.45;103281.97;5099745;27;45135;-43
2022/01/28 06:05:51;;;;;;;;;71.50;51.00;;;;;7.23;78.87;103282.66;5099913;27;45392;-48
2022/01/28 06:08:16;;;;;;;;;69.25;47.75;;;;;7.20;78.97;103293.34;5100136;27;45205;-45
2022/01/28 06:10:41;;;;;;;;;61.00;44.75;;;;;7.08;79.38;103294.72;5099564;27;46324;-46
2022/01/28 06:13:09;;;;;;;;;69.25;49.25;;;;;7.05;79.58;103296.63;5099750;27;45297;-46
2022/01/28 06:15:34;;;;;;;;;64.00;47.00;;;;;7.03;79.88;103295.81;5099435;27;45405;-45
2022/01/28 06:18:00;;;;;;;;;66.25;49.50;;;;;6.98;80.43;103296.00;5099801;27;45358;-46
2022/01/28 06:20:25;;;;;;;;;64.50;43.00;;;;;6.99;80.25;103289.78;5099428;27;46231;-46
2022/01/28 06:22:50;;;;;;;;;70.25;52.00;;;;;7.01;80.58;103287.94;5099238;27;45296;-47
2022/01/28 06:25:16;;;;;;;;;67.50;50.50;;;;;7.03;79.94;103293.16;5099567;27;45299;-44
2022/01/28 06:27:43;;;;;;;;;65.50;49.50;;;;;7.01;80.25;103298.53;5099555;27;45561;-47
2022/01/28 06:30:10;;;;;;;;;68.75;47.00;;;;;6.99;79.65;103292.44;5099306;27;47204;-46
2022/01/28 06:32:35;;;;;;;;;71.25;51.50;;;;;6.99;79.88;103295.06;5099444;27;45323;-46
2022/01/28 06:35:07;;;;;;;;;70.50;49.75;;;;;6.96;80.13;103290.78;5099237;27;45241;-51
2022/01/28 06:37:33;;;;;;;;;67.25;47.00;;;;;6.92;80.71;103288.31;5099507;27;45310;-44
2022/01/28 06:39:58;;;;;;;;;70.00;51.75;;;;;6.97;79.58;103291.63;5099146;27;45479;-45
2022/01/28 06:42:24;;;;;;;;;78.50;52.50;;;;;7.00;79.63;103286.25;5080446;27;45391;-47
2022/01/28 06:44:49;;;;;;;;;67.75;47.25;;;;;7.00;79.56;103284.44;5099183;27;45399;-46
2022/01/28 06:47:14;;;;;;;;;64.75;46.50;;;;;7.01;80.00;103293.25;5099506;27;45403;-47
2022/01/28 06:49:40;;;;;;;;;73.00;45.25;;;;;7.04;79.65;103289.59;5098781;27;47004;-47
2022/01/28 06:52:06;;;;;;;;;66.25;48.75;;;;;7.04;79.39;103285.19;5099146;27;45299;-44
2022/01/28 06:54:32;;;;;;;;;59.75;47.00;;;;;7.04;79.40;103301.06;5098913;27;45252;-53
2022/01/28 06:56:58;;;;;;;;;65.25;48.75;;;;;7.02;79.96;103304.69;5099309;27;45169;-45
2022/01/28 06:59:23;;;;;;;;;62.50;48.50;;;;;7.00;79.85;103302.13;5098234;27;46316;-44
2022/01/28 07:01:49;;;;;;;;;71.00;49.00;;;;;7.06;79.40;103298.34;5098778;27;45885;-46
2022/01/28 07:04:15;;;;;;;;;69.50;48.75;;;;;7.09;79.85;103312.31;5099997;27;45412;-56
2022/01/28 07:06:40;;;;;;;;;70.75;49.00;;;;;7.12;79.54;103309.56;5099974;27;45404;-51
2022/01/28 07:09:07;;;;;;;;;63.25;45.25;;;;;7.15;79.91;103309.41;5116494;27;46348;-45
2022/01/28 07:11:33;;;;;;;;;70.00;48.25;;;;;7.14;79.65;103310.34;5098883;27;45368;-43
2022/01/28 07:13:58;;;;;;;;;68.50;48.75;;;;;7.15;79.44;103311.22;5098958;27;45416;-47
2022/01/28 07:16:24;;;;;;;;;69.25;51.25;;;;;7.16;79.26;103311.16;5114812;27;45370;-43
2022/01/28 07:18:49;;;;;;;;;65.00;48.25;;;;;7.14;79.29;103310.34;5098566;27;47106;-47
2022/01/28 07:21:14;;;;;;;;;71.50;49.75;;;;;7.12;79.59;103309.56;5098615;27;45300;-45
2022/01/28 07:23:40;;;;;;;;;67.00;48.00;;;;;7.11;79.72;103315.75;5098769;27;45398;-45
2022/01/28 07:26:05;;;;;;;;;63.75;42.50;;;;;7.12;79.08;103322.81;5099004;27;45278;-46
2022/01/28 07:28:31;;;;;;;;;72.50;53.00;;;;;7.10;79.88;103321.13;5098126;27;46180;-45
2022/01/28 07:30:57;;;;;;;;;69.00;48.25;;;;;7.13;79.48;103332.47;5098078;27;45239;-45
2022/01/28 07:33:23;;;;;;;;;64.25;47.50;;;;;7.15;79.32;103332.38;5098686;27;45220;-46
2022/01/28 07:35:48;;;;;;;;;68.75;44.25;;;;;7.18;79.67;103327.84;5098698;27;45389;-46
2022/01/28 07:38:13;;;;;;;;;66.50;51.75;;;;;7.22;79.20;103339.16;5098348;27;46151;-47
2022/01/28 07:40:39;;;;;;;;;63.00;47.75;;;;;7.24;79.39;103340.81;5098096;27;45444;-47
2022/01/28 07:43:04;;;;;;;;;66.75;47.75;;;;;7.23;79.17;103344.41;5098368;27;45339;-47
2022/01/28 07:45:30;;;;;;;;;71.25;47.00;;;;;7.29;79.11;103347.72;5098462;27;45265;-48
2022/01/28 07:47:55;;;;;;;;;59.50;46.25;;;;;7.31;78.65;103340.59;5097050;27;45453;-45
2022/01/28 07:50:21;;;;;;;;;66.25;44.75;;;;;7.33;78.35;103349.31;5098144;27;45653;-43
2022/01/28 07:52:46;;;;;;;;;65.25;48.25;;;;;7.34;79.19;103359.00;5098468;27;45377;-45
2022/01/28 07:55:13;;;;;;;;;72.50;48.25;;;;;7.32;78.90;103356.41;5098397;27;45319;-44
2022/01/28 07:57:40;;;;;;;;;67.75;49.25;;;;;7.36;79.06;103359.78;5097970;27;46088;-43
2022/01/28 08:00:10;;;;;;;;;65.00;48.50;;;;;7.41;78.57;103356.03;5097904;27;45612;-46
2022/01/28 08:02:35;;;;;;;;;66.50;51.50;;;;;7.43;78.83;103369.22;5097937;27;45431;-42
2022/01/28 08:05:01;;;;;;;;;65.00;47.75;;;;;7.42;78.80;103364.84;5098310;27;45474;-45
2022/01/28 08:07:26;;;;;;;;;65.25;49.25;;;;;7.56;78.53;103381.03;5097549;27;45349;-44
2022/01/28 08:09:52;;;;;;;;;65.00;46.25;;;;;7.59;78.15;103377.41;5096794;27;45815;-43
2022/01/28 08:12:17;;;;;;;;;59.00;46.75;;;;;7.61;77.94;103379.06;5097907;27;45353;-43
2022/01/28 08:14:43;;;;;;;;;64.75;49.25;;;;;7.66;78.57;103381.50;5098012;27;45450;-43
2022/01/28 08:17:08;;;;;;;;;64.25;45.50;;;;;7.70;78.44;103377.81;5112841;27;46017;-43
2022/01/28 08:19:33;;;;;;;;;60.25;48.50;;;;;7.74;78.44;103377.63;5097329;27;45433;-43
2022/01/28 08:21:59;;;;;;;;;67.75;50.00;;;;;7.77;78.16;103375.78;5097920;27;45656;-44
2022/01/28 08:24:24;;;;;;;;;58.00;45.50;;;;;7.82;78.03;103381.75;5097868;27;45169;-44
2022/01/28 08:26:50;;;;;;;;;70.50;51.75;;;;;7.84;77.28;103378.13;5097556;27;46146;-46
2022/01/28 08:29:16;;;;;;;;;65.00;49.75;;;;;7.79;77.69;103365.97;5097461;27;45420;-45
2022/01/28 08:31:42;;;;;;;;;63.00;48.25;;;;;7.95;77.57;103375.00;5097495;27;45402;-47
2022/01/28 08:34:07;;;;;;;;;67.00;47.25;;;;;7.96;77.53;103380.25;5097648;27;45382;-47
2022/01/28 08:36:34;;;;;;;;;74.00;52.00;;;;;7.94;77.48;103381.25;5097426;27;46078;-45
2022/01/28 08:39:00;;;;;;;;;64.00;47.50;;;;;8.09;77.21;103391.19;5096576;27;45952;-45
2022/01/28 08:41:25;;;;;;;;;65.00;48.50;;;;;8.15;77.61;103396.22;5096783;27;45507;-46
2022/01/28 08:43:54;;;;;;;;;58.50;46.50;;;;;8.23;77.24;103410.00;5096956;27;45554;-52
2022/01/28 08:46:19;;;;;;;;;67.75;48.50;;;;;8.32;76.77;103407.91;5096404;27;45488;-46
2022/01/28 08:48:45;;;;;;;;;70.00;49.50;;;;;8.43;76.23;103408.34;5096694;27;45393;-44
2022/01/28 08:51:11;;;;;;;;;65.75;46.25;;;;;8.56;76.07;103417.47;5096690;27;45160;-49
2022/01/28 08:53:38;;;;;;;;;62.75;48.25;;;;;8.63;76.56;103410.94;5097103;27;45401;-47
2022/01/28 08:56:04;;;;;;;;;59.75;43.75;;;;;8.67;75.64;103431.09;5112390;27;46110;-44
2022/01/28 08:58:29;;;;;;;;;65.50;45.25;;;;;8.61;75.69;103426.06;5095507;27;45223;-46
2022/01/28 09:00:55;;;;;;;;;65.00;51.25;;;;;8.71;75.68;103437.13;5096537;27;45521;-46
2022/01/28 09:03:22;;;;;;;;;64.25;47.50;;;;;8.77;75.15;103436.88;5095501;27;45390;-46
2022/01/28 09:05:50;;;;;;;;;62.50;47.00;;;;;8.85;75.23;103440.03;5095925;27;46184;-44
2022/01/28 09:08:16;;;;;;;;;58.25;46.50;;;;;8.94;74.78;103446.72;5095635;27;45372;-44
2022/01/28 09:10:45;;;;;;;;;65.25;46.25;;;;;8.99;74.46;103436.75;5095781;27;45667;-47
2022/01/28 09:13:23;;;;;;;;;59.25;45.00;;;;;9.09;74.01;103438.03;5096381;27;45455;-46
2022/01/28 09:15:50;;;;;;;;;58.50;41.00;;;;;9.14;73.87;103440.47;5095671;27;46399;-46
2022/01/28 09:18:16;;;;;;;;;64.00;44.75;;;;;9.15;73.95;103444.88;5096177;27;45449;-43
2022/01/28 09:20:42;;;;;;;;;59.75;43.75;;;;;9.14;72.95;103441.38;5095963;27;45427;-45
2022/01/28 09:23:08;;;;;;;;;66.50;41.75;;;;;9.10;73.37;103428.28;5099594;27;45307;-47
2022/01/28 09:25:34;;;;;;;;;57.50;40.25;;;;;9.19;73.33;103431.38;5099601;27;46199;-47
2022/01/28 09:28:01;;;;;;;;;48.50;38.50;;;;;9.34;72.17;103439.56;5099153;27;45769;-46
2022/01/28 09:30:26;;;;;;;;;51.00;36.75;;;;;9.42;72.04;103442.72;5099683;27;45722;-46
2022/01/28 09:32:52;;;;;;;;;53.00;38.50;;;;;9.50;71.71;103443.22;5099415;27;45423;-46
2022/01/28 09:35:18;;;;;;;;;46.25;36.50;;;;;9.61;70.54;103445.38;5098410;27;45427;-45
2022/01/28 09:37:44;;;;;;;;;46.75;30.25;;;;;9.75;69.62;103451.72;5099307;27;45353;-44
2022/01/28 09:40:10;;;;;;;;;35.50;26.50;;;;;9.93;69.38;103449.06;5099428;27;45358;-48
2022/01/28 09:42:40;;;;;;;;;44.25;33.25;;;;;10.01;69.02;103444.25;5099151;27;45581;-44
2022/01/28 09:45:09;;;;;;;;;46.50;37.50;;;;;10.20;68.49;103447.69;5098887;27;46157;-45
2022/01/28 09:47:34;;;;;;;;;41.00;33.25;;;;;10.49;67.83;103450.66;5099288;27;45360;-44
2022/01/28 09:50:00;;;;;;;;;40.25;29.25;;;;;10.56;66.60;103452.09;5099778;27;45329;-47
2022/01/28 09:52:25;;;;;;;;;47.25;34.75;;;;;10.54;66.65;103453.97;5100231;27;45381;-46
2022/01/28 09:54:51;;;;;;;;;48.25;33.75;;;;;10.48;66.69;103446.28;5081048;27;45882;-44
2022/01/28 09:57:18;;;;;;;;;39.00;30.00;;;;;10.49;66.27;103445.34;5099595;27;45499;-47
2022/01/28 09:59:44;;;;;;;;;52.25;42.00;;;;;10.38;66.13;103429.09;5099895;27;45436;-44
2022/01/28 10:02:09;;;;;;;;;31.67;26.67;;;;;10.45;66.25;103443.81;5080998;27;45604;-46
2022/01/28 10:04:35;;;;;;;;;38.00;29.00;;;;;10.42;65.84;103439.50;5099704;27;47192;-45
2022/01/28 10:07:11;;;;;;;;;34.25;27.25;;;;;10.39;65.65;103444.13;5099284;27;45460;-46
2022/01/28 10:09:53;;;;;;;;;33.67;28.00;;;;;10.32;66.01;103453.34;5098437;27;45382;-45
2022/01/28 10:12:24;;;;;;;;;38.50;29.25;;;;;10.26;65.77;103451.00;5099448;27;45338;-46
2022/01/28 10:15:27;;;;;;;;;34.50;25.50;;;;;10.22;66.35;103448.47;5080752;27;47117;-47
2022/01/28 10:17:55;;;;;;;;;40.75;28.75;;;;;10.24;65.97;103449.31;5098566;27;45366;-45
2022/01/28 10:20:23;;;;;;;;;33.00;27.33;;;;;10.26;66.04;103459.00;5099285;27;45455;-48
2022/01/28 10:23:01;;;;;;;;;50.00;30.33;;;;;10.27;66.41;103452.72;5099310;27;45173;-46
2022/01/28 10:25:33;;;;;;;;;33.00;21.00;;;;;10.29;66.14;103457.03;5098806;27;46287;-43
2022/01/28 10:28:04;;;;;;;;;29.33;22.00;;;;;10.32;65.95;103458.66;5098236;27;45368;-43
2022/01/28 10:30:35;;;;;;;;;34.33;24.33;;;;;10.32;65.82;103466.66;5098988;27;45409;-43
2022/01/28 10:33:10;;;;;;;;;35.67;25.00;;;;;10.22;65.53;103464.44;5097972;27;45368;-47
2022/01/28 10:35:36;;;;;;;;;39.33;28.67;;;;;10.12;65.63;103463.19;5099990;27;47219;-46
2022/01/28 10:38:03;;;;;;;;;36.67;28.00;;;;;10.06;66.30;103459.97;5100617;27;45410;-45
2022/01/28 10:40:29;;;;;;;;;33.67;19.67;;;;;10.05;66.16;103455.59;5099644;27;45521;-46
2022/01/28 10:42:54;;;;;;;;;34.00;23.33;;;;;10.08;66.37;103468.75;5099748;27;45409;-48
2022/01/28 10:45:28;;;;;;;;;39.67;28.00;;;;;10.04;66.32;103475.16;5098599;27;47164;-56
2022/01/28 10:47:56;;;;;;;;;26.00;20.00;;;;;10.03;66.01;103474.28;5098600;27;45333;-51
2022/01/28 10:50:36;;;;;;;;;31.00;22.67;;;;;10.01;66.39;103481.47;5099214;27;45331;-45
2022/01/28 10:53:17;;;;;;;;;35.00;23.33;;;;;9.97;65.96;103478.09;5098939;27;45848;-45
2022/01/28 10:55:57;;;;;;;;;27.33;25.00;;;;;10.03;66.67;103481.38;5098443;27;46902;-44
2022/01/28 10:58:28;;;;;;;;;37.75;28.50;;;;;10.08;65.81;103487.34;5098321;27;45471;-45
2022/01/28 11:00:57;;;;;;;;;31.00;23.33;;;;;10.05;65.60;103488.38;5098573;27;45283;-50
2022/01/28 11:03:26;;;;;;;;;33.33;24.67;;;;;10.03;65.62;103486.69;5098816;27;45326;-46
2022/01/28 11:05:56;;;;;;;;;39.00;23.50;;;;;9.98;65.94;103485.13;5098117;27;45931;-47
2022/01/28 11:08:24;;;;;;;;;35.33;29.67;;;;;9.93;66.32;103494.28;5098096;27;45351;-45
2022/01/28 11:10:50;;;;;;;;;32.00;20.33;;;;;9.88;66.15;103491.84;5098447;27;45323;-47
2022/01/28 11:13:17;;;;;;;;;36.50;26.75;;;;;9.82;66.41;103493.94;5098102;27;45369;-47
2022/01/28 11:15:42;;;;;;;;;29.00;26.00;;;;;9.76;66.22;103489.78;5096617;27;46171;-45
2022/01/28 11:18:09;;;;;;;;;26.00;22.33;;;;;9.77;66.03;103502.13;5097943;27;45495;-45
2022/01/28 11:20:41;;;;;;;;;34.75;24.75;;;;;9.79;66.12;103494.09;5098152;27;45477;-53
2022/01/28 11:23:15;;;;;;;;;34.33;23.33;;;;;9.82;66.43;103492.16;5098202;27;45385;-52
2022/01/28 11:25:59;;;;;;;;;24.67;18.00;;;;;9.84;66.25;103484.09;5098069;27;46066;-46
2022/01/28 11:28:47;;;;;;;;;30.00;21.67;;;;;9.85;65.47;103472.53;5097909;27;45503;-48
2022/01/28 11:31:14;;;;;;;;;26.33;19.67;;;;;9.89;64.95;103476.75;5098130;27;45385;-52
2022/01/28 11:33:47;;;;;;;;;45.75;38.25;;;;;9.89;64.60;103474.09;5097914;27;45497;-46
2022/01/28 11:36:13;;;;;;;;;33.67;25.33;;;;;9.88;65.29;103475.03;5097719;27;46393;-48
2022/01/28 11:38:45;;;;;;;;;28.33;25.00;;;;;9.87;64.73;103473.31;5097789;27;45303;-44
2022/01/28 11:41:17;;;;;;;;;28.00;22.67;;;;;9.81;64.89;103468.28;5097820;27;45760;-55
2022/01/28 11:43:48;;;;;;;;;30.67;23.00;;;;;9.81;64.82;103462.97;5097818;27;45414;-46
2022/01/28 11:46:23;;;;;;;;;30.00;22.00;;;;;9.86;65.10;103456.50;5097467;27;45407;-53
2022/01/28 11:48:52;;;;;;;;;29.33;23.00;;;;;9.86;65.46;103453.84;5097074;27;45232;-45
2022/01/28 11:51:23;;;;;;;;;33.33;25.67;;;;;9.88;65.40;103454.63;5097589;27;45358;-49
2022/01/28 11:53:57;;;;;;;;;34.00;24.33;;;;;9.88;65.21;103459.94;5098494;27;45544;-48
2022/01/28 11:56:24;;;;;;;;;33.67;25.00;;;;;9.84;65.16;103454.84;5097823;27;46372;-47
2022/01/28 11:58:52;;;;;;;;;30.33;25.67;;;;;9.81;65.76;103445.22;5097703;27;45771;-47
2022/01/28 12:01:38;;;;;;;;;33.00;24.67;;;;;9.80;65.48;103434.69;5078838;27;45330;-44
2022/01/28 12:04:25;;;;;;;;;28.67;24.33;;;;;9.75;66.01;103440.22;4995088;28;45449;-46
2022/01/28 12:06:55;;;;;;;;;31.67;24.00;;;;;9.74;65.92;103431.38;4994974;28;46554;-47
2022/01/28 12:09:23;;;;;;;;;31.67;25.67;;;;;9.66;65.67;103412.28;4994827;28;45350;-46
2022/01/28 12:11:48;;;;;;;;;30.33;26.00;;;;;9.61;65.85;103409.00;4995033;28;45464;-49
2022/01/28 12:14:14;;;;;;;;;38.50;27.25;;;;;9.62;65.84;103417.84;4995177;28;45435;-45
2022/01/28 12:16:45;;;;;;;;;33.00;27.67;;;;;9.62;65.25;103420.50;4994707;28;47032;-46
2022/01/28 12:19:31;;;;;;;;;30.00;19.50;;;;;9.54;65.89;103402.25;5011166;28;45471;-46
2022/01/28 12:22:04;;;;;;;;;25.00;18.67;;;;;9.57;65.57;103423.38;4995186;28;45358;-46
2022/01/28 12:24:32;;;;;;;;;26.33;19.33;;;;;9.55;65.28;103411.94;4995104;28;45524;-47
2022/01/28 12:27:13;;;;;;;;;35.00;21.33;;;;;9.59;65.17;103396.72;4994587;28;47308;-47
2022/01/28 12:29:47;;;;;;;;;23.00;17.00;;;;;9.68;65.15;103398.91;4994668;28;45381;-52
2022/01/28 12:32:13;;;;;;;;;26.33;21.33;;;;;9.71;64.42;103375.72;4993837;28;45317;-50
2022/01/28 12:34:46;;;;;;;;;18.33;17.67;;;;;9.82;64.88;103384.94;4977724;28;45513;-51
2022/01/28 12:37:12;;;;;;;;;36.50;32.75;;;;;9.73;64.66;103373.84;4993632;28;45563;-54
2022/01/28 12:39:43;;;;;;;;;35.67;22.67;;;;;9.75;64.73;103374.63;4993872;28;45302;-54
2022/01/28 12:42:22;;;;;;;;;24.33;16.00;;;;;9.75;64.82;103373.75;5087007;27;45487;-47
2022/01/28 12:44:58;;;;;;;;;26.00;24.00;;;;;9.77;64.79;103386.97;5097206;27;45319;-45
2022/01/28 12:47:25;;;;;;;;;27.67;19.33;;;;;9.71;64.43;103383.69;5096621;27;46304;-52